Latest Weather Observations for Holsworthy

IDN60801

Issued at 6:02 pm EST Sunday 2 August 2015 (issued every 30 minutes, with the page automatically refreshed every 10 minutes)

About weather observations | Map of weather stations | Latest weather observations for NSW | Other Formats
Station Details ID: 066161 Name: HOLSWORTHY AERODROME AWS Lat: -33.99 Lon: 150.95 Height: 68.16 m
Data from the previous 72 hours. | See also: Recent months at Holsworthy
Date/Time
EST
Temp
°C
App
Temp
°C
Dew
Point
Rel
Hum
%
Delta-T
°C
Wind Press
QNH
hPa
Press
MSL
hPa
Rain
since 9 am
mm
Dir
 
Spd
km/h
Gust
km/h
Spd
kts
Gust
kts
02/06:00pm 19.2 16.4 7.0 45 6.2 W 11 17 6 9 1012.0 1012.1 0.0
02/05:30pm 19.4 17.0 6.8 44 6.4 WSW 9 15 5 8 1011.3 1011.3 0.0
02/05:00pm 20.9 17.9 6.1 38 7.4 W 11 15 6 8 1010.7 1010.7 0.0
02/04:30pm 22.8 19.5 6.6 35 8.3 WNW 13 22 7 12 1010.1 1010.1 0.0
02/04:00pm 23.8 19.4 6.6 33 8.9 WNW 19 35 10 19 1009.9 1009.9 0.0
02/03:30pm 24.0 19.5 6.3 32 9.1 NW 19 28 10 15 1009.8 1009.8 0.0
02/03:00pm 23.1 21.5 8.8 40 7.7 NNE 7 9 4 5 1009.8 1009.8 0.0
02/02:30pm 22.0 20.4 8.9 43 7.0 N 7 15 4 8 1010.4 1010.4 0.0
02/02:00pm 21.1 20.5 9.0 46 6.4 S 2 6 1 3 1010.6 1010.6 0.0
02/01:30pm 20.9 19.4 8.5 45 6.5 SW 6 9 3 5 1010.9 1010.9 0.0
02/01:00pm 21.3 19.6 8.2 43 6.9 WNW 7 13 4 7 1011.7 1011.8 0.0
02/12:30pm 19.9 17.7 7.9 46 6.2 WNW 9 15 5 8 1012.4 1012.5 0.0
02/12:00pm 19.0 17.4 8.1 49 5.6 N 6 11 3 6 1012.7 1012.8 0.0
02/11:30am 19.1 16.9 7.8 48 5.8 N 9 13 5 7 1013.0 1013.1 0.0
02/11:00am 17.9 16.0 7.6 51 5.2 NNW 7 11 4 6 1013.9 1014.0 0.0
02/10:00am 16.1 13.8 7.3 56 4.4 W 9 13 5 7 1015.1 1015.1 0.0
02/09:30am 15.0 13.5 6.8 58 4.0 WSW 4 9 2 5 1015.1 1015.1 0.0
02/08:30am 11.2 7.9 6.3 72 2.3 SW 13 20 7 11 1015.9 1015.9 0.0
02/08:00am 11.0 8.0 6.2 72 2.2 SW 11 15 6 8 1015.8 1015.8 0.0
02/07:30am 10.4 6.7 6.2 75 2.0 SW 15 19 8 10 1015.6 1015.6 0.0
02/07:00am 8.2 5.9 5.5 83 1.2 SW 7 9 4 5 1015.4 1015.4 0.0
02/06:30am 8.5 6.4 5.8 83 1.2 SSW 6 9 3 5 1015.2 1015.2 0.0
02/06:00am 8.7 6.5 5.4 80 1.5 SW 6 7 3 4 1015.1 1015.1 0.0
02/05:30am 9.3 7.1 5.5 77 1.7 SSW 6 7 3 4 1015.2 1015.2 0.0
02/05:00am 9.8 7.1 5.6 75 1.9 WSW 9 15 5 8 1015.6 1015.6 0.0
02/04:30am 10.8 8.6 5.3 69 2.5 W 6 9 3 5 1015.5 1015.5 0.0
02/04:00am 12.4 11.0 7.1 70 2.6 WSW 4 7 2 4 1015.7 1015.7 0.0
02/03:30am 11.8 10.4 7.1 73 2.3 WSW 4 7 2 4 1015.7 1015.7 0.0
02/03:00am 11.5 10.9 7.2 75 2.1 CALM 0 0 0 0 1015.9 1015.9 0.0
02/02:30am 10.8 8.8 7.1 78 1.8 S 7 9 4 5 1016.1 1016.1 0.0
02/02:00am 9.9 8.0 6.6 80 1.5 SSW 6 7 3 4 1016.5 1016.5 0.0
02/01:30am 9.9 7.3 5.9 76 1.8 SW 9 11 5 6 1016.9 1016.9 0.0
02/01:00am 9.9 7.7 5.5 74 2.0 NW 6 7 3 4 1016.8 1016.8 0.0
02/12:30am 11.9 9.8 6.0 67 2.8 NNW 6 7 3 4 1016.7 1016.7 0.0
02/12:00am 13.1 11.0 5.8 61 3.4 N 6 9 3 5 1016.6 1016.6 0.0
 
Date/Time
EST
Temp
°C
App
Temp
°C
Dew
Point
Rel
Hum
%
Delta-T
°C
Wind Press
QNH
hPa
Press
MSL
hPa
Rain
since 9 am
mm
Dir
 
Spd
km/h
Gust
km/h
Spd
kts
Gust
kts
01/11:30pm 12.9 10.9 6.9 67 2.9 N 7 9 4 5 1016.9 1016.9 0.0
01/11:00pm 11.1 10.2 6.0 71 2.4 CALM 0 0 0 0 1017.2 1017.2 0.0
01/10:30pm 12.1 10.0 5.9 66 2.9 NW 6 6 3 3 1017.6 1017.6 0.0
01/10:00pm 12.9 12.0 6.0 63 3.3 CALM 0 0 0 0 1017.2 1017.2 0.0
01/09:30pm 14.2 12.3 6.6 60 3.7 NW 6 7 3 4 1017.5 1017.5 0.0
01/09:00pm 15.6 13.9 5.8 52 4.7 NW 4 7 2 4 1017.6 1017.6 0.0
01/08:30pm 15.9 13.7 5.2 49 5.1 NW 6 7 3 4 1017.5 1017.5 0.0
01/08:00pm 16.4 14.1 4.8 46 5.5 NW 6 9 3 5 1017.1 1017.1 0.0
01/07:30pm 17.0 14.4 4.3 43 6.0 NNW 7 11 4 6 1016.9 1016.9 0.0
01/07:00pm 17.9 14.6 4.5 41 6.4 N 11 17 6 9 1016.6 1016.6 0.0
01/06:30pm 18.2 14.9 4.4 40 6.6 N 11 19 6 10 1016.2 1016.2 0.0
01/06:00pm 18.4 14.3 4.2 39 6.7 N 15 20 8 11 1016.0 1016.0 0.0
01/05:30pm 18.4 14.6 3.8 38 6.9 NNW 13 20 7 11 1015.7 1015.7 0.0
01/05:00pm 18.7 14.1 3.7 37 7.1 NNW 17 24 9 13 1015.5 1015.5 0.0
01/04:30pm 19.6 14.5 3.3 34 7.7 NNW 19 30 10 16 1015.0 1015.0 0.0
01/04:00pm 20.1 15.0 2.9 32 8.1 NNW 19 30 10 16 1015.1 1015.1 0.0
01/03:30pm 20.2 15.5 3.0 32 8.1 NNW 17 26 9 14 1015.3 1015.3 0.0
01/03:00pm 20.3 16.0 3.5 33 8.0 NW 15 20 8 11 1015.4 1015.4 0.0
01/02:30pm 20.8 15.7 4.0 33 8.1 NW 20 33 11 18 1015.4 1015.4 0.0
01/02:00pm 20.4 15.4 3.6 33 8.0 WNW 19 30 10 16 1015.4 1015.4 0.0
01/01:30pm 20.5 14.7 2.3 30 8.5 NW 22 35 12 19 1015.6 1015.6 0.0
01/01:00pm 21.0 16.7 5.4 36 7.7 WNW 17 26 9 14 1016.0 1016.0 0.0
01/12:30pm 20.0 16.2 6.0 40 7.0 NW 15 26 8 14 1016.1 1016.1 0.0
01/12:00pm 17.8 14.8 7.8 52 5.1 W 13 20 7 11 1016.7 1016.7 0.0
01/11:30am 16.5 13.1 7.7 56 4.4 W 15 20 8 11 1017.3 1017.3 0.0
01/11:00am 16.5 12.0 6.9 53 4.7 WNW 20 28 11 15 1017.4 1017.4 0.0
01/10:30am 15.3 11.4 7.1 58 4.0 WNW 17 24 9 13 1017.9 1017.9 0.0
01/10:00am 13.5 10.2 6.6 63 3.3 NW 13 19 7 10 1018.4 1018.4 0.0
01/09:30am 11.1 8.6 6.6 74 2.1 W 9 13 5 7 1018.5 1018.5 0.0
01/09:00am 9.3 6.8 6.6 83 1.3 WSW 9 15 5 8 1018.8 1018.8 0.0
01/08:30am 7.6 4.9 5.6 87 0.9 SW 9 13 5 7 1019.0 1019.0 0.0
01/08:00am 7.1 4.4 5.4 89 0.8 W 9 11 5 6 1018.6 1018.6 0.0
01/07:30am 5.9 3.4 5.0 94 0.4 WSW 7 11 4 6 1018.5 1018.5 0.0
01/07:00am 4.7 2.0 3.8 94 0.4 WSW 7 11 4 6 1018.2 1018.2 0.0
01/06:30am 5.1 2.5 4.4 95 0.3 WSW 7 9 4 5 1017.9 1017.9 0.0
01/06:00am 5.3 2.8 4.7 96 0.3 WSW 7 11 4 6 1017.9 1017.9 0.0
01/05:30am 4.8 2.4 4.1 95 0.3 W 6 9 3 5 1017.8 1017.8 0.0
01/05:00am 4.6 2.5 4.0 96 0.3 W 4 6 2 3 1017.9 1017.9 0.0
01/04:30am 4.5 1.9 4.1 97 0.2 SW 7 9 4 5 1018.4 1018.4 0.0
01/04:00am 3.7 1.1 3.1 96 0.2 SW 6 11 3 6 1018.8 1018.8 0.0
01/03:30am 4.4 1.7 3.8 96 0.3 SW 7 11 4 6 1018.7 1018.7 0.0
01/03:00am 4.9 1.9 4.3 96 0.3 SW 9 11 5 6 1018.9 1018.9 0.0
01/02:30am 4.8 1.8 4.2 96 0.3 W 9 11 5 6 1019.2 1019.2 0.0
01/02:00am 4.2 1.6 3.3 94 0.4 WSW 6 7 3 4 1019.8 1019.9 0.0
01/01:30am 4.1 1.3 3.1 93 0.4 WSW 7 9 4 5 1019.6 1019.7 0.0
01/01:00am 5.6 4.4 4.7 94 0.4 CALM 0 4 0 2 1019.8 1019.9 0.0
01/12:30am 5.3 3.3 4.3 93 0.4 W 4 6 2 3 1020.2 1020.3 0.0
01/12:00am 6.5 4.3 5.5 93 0.4 SSW 6 7 3 4 1020.7 1020.8 0.0
 
Date/Time
EST
Temp
°C
App
Temp
°C
Dew
Point
Rel
Hum
%
Delta-T
°C
Wind Press
QNH
hPa
Press
MSL
hPa
Rain
since 9 am
mm
Dir
 
Spd
km/h
Gust
km/h
Spd
kts
Gust
kts
31/11:30pm 6.6 3.9 5.4 92 0.5 WSW 9 11 5 6 1021.2 1021.3 0.0
31/11:00pm 7.4 6.1 5.9 90 0.7 SW 2 6 1 3 1021.3 1021.4 0.0
31/10:30pm 7.5 5.4 5.6 88 0.9 WSW 6 7 3 4 1021.3 1021.4 0.0
31/10:00pm 7.9 5.6 5.9 87 0.9 WSW 7 9 4 5 1021.2 1021.3 0.0
31/09:30pm 9.5 7.4 6.8 83 1.3 ESE 7 9 4 5 1021.1 1021.2 0.0
31/09:00pm 10.7 8.8 6.8 77 1.8 SE 6 7 3 4 1021.0 1021.1 0.0
31/08:30pm 11.2 8.5 7.5 78 1.8 SE 11 13 6 7 1020.7 1020.8 0.0
31/08:00pm 11.5 8.4 7.4 76 2.0 SE 13 15 7 8 1020.8 1020.9 0.0
31/07:30pm 12.1 9.0 7.4 73 2.3 SE 13 15 7 8 1020.7 1020.8 0.0
31/07:00pm 12.6 9.6 7.7 72 2.4 SE 13 15 7 8 1020.4 1020.5 0.0
31/06:30pm 13.2 10.2 7.9 70 2.6 SE 13 17 7 9 1020.3 1020.4 0.0
31/06:00pm 13.7 10.7 7.5 66 3.0 SE 13 15 7 8 1020.1 1020.2 0.0
31/05:30pm 14.8 11.7 7.1 60 3.8 SE 13 17 7 9 1019.9 1020.0 0.0
31/05:00pm 17.0 14.6 4.3 43 6.0 NNE 6 9 3 5 1019.5 1019.6 0.0
31/04:30pm 18.4 16.2 5.3 42 6.4 NNE 6 7 3 4 1019.2 1019.2 0.0
31/04:00pm 19.8 17.8 4.3 36 7.4 WNW 4 7 2 4 1019.4 1019.5 0.0
31/03:30pm 19.2 16.4 3.4 35 7.4 NNW 7 11 4 6 1019.3 1019.3 0.0
31/03:00pm 19.4 16.9 4.7 38 7.1 NW 7 9 4 5 1019.4 1019.5 0.0
31/02:30pm 19.4 16.0 4.0 36 7.4 WSW 11 17 6 9 1019.4 1019.5 0.0
31/02:00pm 19.3 16.0 4.3 37 7.2 WNW 11 20 6 11 1019.5 1019.6 0.0
31/01:30pm 19.1 15.6 3.7 36 7.3 W 11 20 6 11 1019.9 1020.0 0.0
31/01:00pm 18.8 16.1 3.8 37 7.1 W 7 15 4 8 1020.1 1020.2 0.0
31/12:30pm 18.2 15.3 4.7 41 6.5 WSW 9 17 5 9 1020.5 1020.6 0.0
31/12:00pm 17.7 14.6 3.6 39 6.6 WSW 9 15 5 8 1021.1 1021.2 0.0
31/11:30am 17.2 13.7 3.5 40 6.4 WNW 11 20 6 11 1021.3 1021.4 0.0
31/11:00am 17.0 14.2 5.0 45 5.7 W 9 15 5 8 1021.7 1021.8 0.0
31/10:30am 15.9 13.1 5.2 49 5.1 W 9 13 5 7 1021.9 1022.0 0.0
31/10:00am 14.9 12.3 6.0 55 4.3 W 9 11 5 6 1021.8 1021.9 0.0
31/09:30am 13.3 9.9 5.7 60 3.6 W 13 19 7 10 1021.5 1021.6 0.0
31/09:00am 12.0 8.3 4.7 61 3.3 WNW 13 20 7 11 1021.3 1021.4 0.0
31/08:30am 11.5 9.0 4.7 63 3.1 W 7 9 4 5 1021.6 1021.7 0.0
31/08:00am 10.4 8.0 5.2 70 2.4 WSW 7 11 4 6 1021.3 1021.4 0.0
31/07:30am 7.7 5.1 4.1 78 1.6 WNW 7 9 4 5 1021.0 1021.1 0.0
31/07:00am 6.6 3.8 3.4 80 1.3 SW 7 9 4 5 1021.0 1021.1 0.0
31/06:30am 6.7 3.9 3.0 77 1.5 SW 7 11 4 6 1020.4 1020.5 0.0
31/06:00am 9.4 6.3 3.6 67 2.5 SW 9 11 5 6 1019.6 1019.7 0.0
31/05:30am 9.0 5.6 3.8 70 2.3 WSW 11 13 6 7 1019.6 1019.7 0.0
31/05:00am 8.3 5.3 3.9 74 1.9 WSW 9 11 5 6 1019.1 1019.1 0.0
31/04:30am 9.3 6.3 3.9 69 2.4 WSW 9 11 5 6 1018.9 1018.9 0.0
31/04:00am 9.3 6.6 3.5 67 2.5 SW 7 11 4 6 1018.9 1018.9 0.0
31/03:30am 10.5 7.8 3.8 63 3.0 W 7 11 4 6 1018.7 1018.7 0.0
31/03:00am 10.9 8.4 3.9 62 3.1 NW 6 9 3 5 1018.6 1018.6 0.0
31/02:30am 10.5 8.8 3.8 63 3.0 ENE 2 6 1 3 1018.7 1018.7 0.0
31/02:00am 10.4 8.9 3.2 61 3.1 CALM 0 0 0 0 1019.0 1019.0 0.0
31/01:30am 12.6 9.9 3.5 54 4.1 NW 7 11 4 6 1018.9 1018.9 0.0
31/01:00am 12.3 9.2 3.5 55 3.9 WNW 9 17 5 9 1018.9 1018.9 0.0
31/12:30am 10.8 9.4 3.4 60 3.3 CALM 0 0 0 0 1019.1 1019.1 0.0
31/12:00am 12.8 10.0 3.2 52 4.3 WNW 7 9 4 5 1019.0 1019.0 0.0
 
Date/Time
EST
Temp
°C
App
Temp
°C
Dew
Point
Rel
Hum
%
Delta-T
°C
Wind Press
QNH
hPa
Press
MSL
hPa
Rain
since 9 am
mm
Dir
 
Spd
km/h
Gust
km/h
Spd
kts
Gust
kts
30/11:30pm 13.2 10.4 3.0 50 4.5 NNW 7 13 4 7 1018.6 1018.6 0.0
30/11:00pm 13.4 10.2 2.9 49 4.7 NW 9 15 5 8 1018.4 1018.4 0.0
30/10:30pm 13.3 9.7 2.8 49 4.7 NNW 11 15 6 8 1018.6 1018.6 0.0
30/10:00pm 13.8 9.8 2.7 47 4.9 NW 13 19 7 10 1019.0 1019.0 0.0
30/09:30pm 14.3 9.5 2.5 45 5.2 NW 17 30 9 16 1018.9 1018.9 0.0
30/09:00pm 14.4 9.9 2.3 44 5.3 NW 15 24 8 13 1018.9 1018.9 0.0
30/08:30pm 14.4 9.1 2.0 43 5.5 NW 19 33 10 18 1018.9 1018.9 0.0
30/08:00pm 14.5 9.2 2.1 43 5.5 NW 19 33 10 18 1018.9 1018.9 0.0
30/07:30pm 14.4 11.1 4.4 51 4.6 NW 11 17 6 9 1019.3 1019.3 0.0
30/07:00pm 14.2 10.6 4.8 53 4.4 NNW 13 20 7 11 1019.2 1019.2 0.0
30/06:30pm 14.1 11.2 4.7 53 4.4 NNW 9 13 5 7 1019.1 1019.1 0.0

Other Formats:

Comma delimited format used in spreadsheet applications
http://www.bom.gov.au/fwo/IDN60801/IDN60801.95761.axf

JavaScript Object Notation format (JSON) in row-major order
http://www.bom.gov.au/fwo/IDN60801/IDN60801.95761.json